Time;durP1;ratioP1;P1;durP2;ratioP2;P2;SDS_P1;SDS_P2;PMS_P1;PMS_P2;Temp;Humidity;BMP_temperature;BMP_pressure;BME280_temperature;BME280_humidity;BME280_pressure;Samples;Min_cycle;Max_cycle;Signal;HPM_P1;HPM_P2
2023/07/15 00:01:29;;;;;;;9.68;5.70;;;;;;;21.34;64.43;99713.66;5016086;28;20049;-75
2023/07/15 00:03:56;;;;;;;11.20;5.95;;;;;;;21.25;64.99;99714.56;5023418;28;20049;-75
2023/07/15 00:06:25;;;;;;;11.50;5.65;;;;;;;21.27;64.72;99723.34;5007872;28;20433;-76
2023/07/15 00:08:55;;;;;;;10.68;5.30;;;;;;;21.20;65.22;99722.28;4997732;28;20133;-75
2023/07/15 00:11:41;;;;;;;10.73;5.07;;;;;;;21.21;65.86;99718.59;5003860;28;20042;-75
2023/07/15 00:14:16;;;;;;;8.80;4.47;;;;;;;21.19;65.70;99714.34;5003587;28;20384;-76
2023/07/15 00:16:43;;;;;;;10.05;5.07;;;;;;;21.11;65.87;99709.72;5017934;28;20069;-76
2023/07/15 00:19:11;;;;;;;9.52;5.55;;;;;;;20.98;66.67;99698.50;5001056;28;20046;-77
2023/07/15 00:21:39;;;;;;;9.85;5.07;;;;;;;21.09;67.21;99724.34;5007168;28;20117;-76
2023/07/15 00:24:09;;;;;;;8.52;4.70;;;;;;;21.10;67.62;99723.31;5009362;28;20544;-76
2023/07/15 00:26:36;;;;;;;6.82;4.65;;;;;;;20.98;67.56;99720.88;4989734;28;20152;-77
2023/07/15 00:29:06;;;;;;;10.45;4.97;;;;;;;21.04;67.71;99726.66;4999809;28;21717;-75
2023/07/15 00:31:35;;;;;;;8.90;4.72;;;;;;;20.81;67.88;99694.81;4994666;28;20102;-75
2023/07/15 00:34:05;;;;;;;11.70;4.85;;;;;;;20.95;67.93;99723.03;5017628;28;20061;-76
2023/07/15 00:36:33;;;;;;;10.32;4.97;;;;;;;20.93;67.37;99725.06;5007557;28;20054;-75
2023/07/15 00:39:01;;;;;;;9.55;4.78;;;;;;;20.97;67.84;99729.09;4989827;28;20049;-77
2023/07/15 00:41:30;;;;;;;8.45;4.60;;;;;;;21.04;66.91;99732.88;5006114;28;20053;-76
2023/07/15 00:43:58;;;;;;;11.60;4.80;;;;;;;21.07;66.72;99721.81;5015935;28;20157;-75
2023/07/15 00:46:37;;;;;;;10.90;4.68;;;;;;;21.07;66.55;99721.81;5025765;28;20045;-76
2023/07/15 00:49:12;;;;;;;13.05;4.95;;;;;;;21.06;66.09;99724.66;5002769;28;20065;-74
2023/07/15 00:51:45;;;;;;;8.10;4.43;;;;;;;21.05;66.55;99728.34;5006728;28;20058;-75
2023/07/15 00:54:13;;;;;;;8.07;4.60;;;;;;;21.00;66.70;99732.34;5005233;28;20075;-75
2023/07/15 00:56:44;;;;;;;7.28;4.22;;;;;;;20.97;67.50;99727.25;5016302;28;20060;-76
2023/07/15 00:59:14;;;;;;;7.43;4.45;;;;;;;20.99;67.51;99725.28;5008947;28;20497;-76
2023/07/15 01:01:42;;;;;;;9.67;4.97;;;;;;;20.93;67.22;99709.75;5008653;28;20052;-76
2023/07/15 01:04:09;;;;;;;7.68;4.80;;;;;;;20.95;66.62;99707.72;5007379;28;20500;-76
2023/07/15 01:06:41;;;;;;;8.05;4.70;;;;;;;21.02;67.12;99726.81;5007603;28;20081;-76
2023/07/15 01:09:09;;;;;;;8.35;4.50;;;;;;;20.88;67.62;99721.97;5000250;28;20050;-76
2023/07/15 01:11:39;;;;;;;9.43;4.75;;;;;;;20.85;67.54;99715.06;5007704;28;20403;-75
2023/07/15 01:14:06;;;;;;;6.78;4.45;;;;;;;20.88;68.24;99717.44;5005113;28;20093;-76
2023/07/15 01:16:32;;;;;;;7.53;4.10;;;;;;;20.78;68.50;99702.38;5006289;28;20101;-75
2023/07/15 01:19:03;;;;;;;7.60;4.32;;;;;;;20.76;68.89;99707.91;5000445;28;20381;-76
2023/07/15 01:21:34;;;;;;;7.65;4.82;;;;;;;20.77;69.24;99716.84;5009060;28;20076;-74
2023/07/15 01:24:06;;;;;;;6.55;4.68;;;;;;;20.61;70.11;99701.38;5007381;28;20070;-75
2023/07/15 01:26:36;;;;;;;8.85;4.80;;;;;;;20.70;70.87;99726.50;5008081;28;20045;-75
2023/07/15 01:29:03;;;;;;;5.68;4.30;;;;;;;20.62;70.90;99713.78;5002722;28;20041;-76
2023/07/15 01:31:31;;;;;;;9.05;4.78;;;;;;;20.65;71.25;99718.88;5013430;28;20046;-76
2023/07/15 01:33:58;;;;;;;8.27;4.75;;;;;;;20.54;71.72;99709.19;5006913;28;20704;-76
2023/07/15 01:36:26;;;;;;;6.25;4.47;;;;;;;20.58;71.87;99723.19;4993629;28;20414;-75
2023/07/15 01:38:53;;;;;;;7.90;4.43;;;;;;;20.53;73.01;99726.31;5003657;28;20200;-75
2023/07/15 01:41:24;;;;;;;6.25;4.72;;;;;;;20.51;72.92;99724.78;5007151;28;20056;-76
2023/07/15 01:43:52;;;;;;;7.07;4.63;;;;;;;20.53;72.87;99720.94;5011200;28;20054;-75
2023/07/15 01:46:22;;;;;;;;;;;;;;;20.52;73.24;99719.25;5013559;28;20104;-75
2023/07/15 01:48:50;;;;;;;10.05;4.80;;;;;;;20.51;73.07;99714.03;4999132;28;19950;-76
2023/07/15 01:51:19;;;;;;;10.63;4.95;;;;;;;20.48;74.08;99723.25;5009533;28;20048;-75
2023/07/15 01:53:46;;;;;;;9.85;5.38;;;;;;;20.42;74.53;99707.72;5013460;28;20043;-75
2023/07/15 01:56:14;;;;;;;9.40;4.80;;;;;;;20.39;75.24;99704.50;5007685;28;20074;-75
2023/07/15 01:58:42;;;;;;;9.27;4.85;;;;;;;20.36;76.06;99699.38;5006608;28;20050;-75
2023/07/15 02:01:08;;;;;;;8.85;4.72;;;;;;;20.26;76.18;99683.31;5031295;28;20073;-77
2023/07/15 02:03:35;;;;;;;7.20;4.78;;;;;;;20.28;77.19;99695.63;5029914;28;20102;-77
2023/07/15 02:06:02;;;;;;;8.80;4.93;;;;;;;20.18;78.36;99688.59;5023669;28;20312;-77
2023/07/15 02:08:29;;;;;;;8.75;5.35;;;;;;;20.10;78.72;99677.75;5001558;28;20050;-75
2023/07/15 02:10:56;;;;;;;6.43;4.65;;;;;;;20.09;78.74;99692.19;5009770;28;20054;-76
2023/07/15 02:13:22;;;;;;;6.55;4.93;;;;;;;20.12;78.73;99694.56;5020787;28;20077;-75
2023/07/15 02:15:51;;;;;;;8.25;4.70;;;;;;;20.08;79.50;99696.72;5024294;28;20077;-76
2023/07/15 02:18:18;;;;;;;11.38;5.35;;;;;;;19.90;79.49;99675.16;5020542;28;20053;-76
2023/07/15 02:20:46;;;;;;;8.98;4.90;;;;;;;20.06;80.47;99704.06;5021161;28;20046;-74
2023/07/15 02:23:13;;;;;;;10.07;4.63;;;;;;;20.07;80.75;99696.84;5011989;28;20052;-76
2023/07/15 02:25:39;;;;;;;8.75;5.13;;;;;;;19.92;81.01;99670.47;5011194;28;20141;-76
2023/07/15 02:28:06;;;;;;;6.50;4.47;;;;;;;20.07;81.40;99691.47;5002725;28;20057;-77
2023/07/15 02:30:34;;;;;;;11.23;5.32;;;;;;;20.03;82.36;99699.00;5006624;28;20450;-76
2023/07/15 02:33:02;;;;;;;11.05;4.97;;;;;;;19.92;83.12;99681.22;5008390;28;20423;-76
2023/07/15 02:35:30;;;;;;;8.20;4.82;;;;;;;19.96;83.68;99688.00;5017369;28;20054;-75
2023/07/15 02:37:58;;;;;;;10.68;5.40;;;;;;;19.93;83.92;99671.31;5020682;28;20788;-77
2023/07/15 02:40:25;;;;;;;10.07;4.95;;;;;;;19.98;84.01;99679.81;5011254;28;20050;-78
2023/07/15 02:42:55;;;;;;;7.70;5.32;;;;;;;19.86;84.15;99671.06;5026483;28;20113;-76
2023/07/15 02:45:23;;;;;;;7.82;5.07;;;;;;;19.71;84.50;99655.59;5022800;28;20291;-75
2023/07/15 02:47:50;;;;;;;11.50;5.70;;;;;;;19.72;84.65;99662.66;5010492;28;20556;-75
2023/07/15 02:50:18;;;;;;;7.63;5.43;;;;;;;19.68;85.47;99667.47;5013721;28;20049;-76
2023/07/15 02:52:45;;;;;;;10.18;5.47;;;;;;;19.62;85.21;99665.38;5026305;28;20140;-76
2023/07/15 02:55:12;;;;;;;8.73;5.18;;;;;;;19.60;85.55;99675.44;5006715;28;20046;-76
2023/07/15 02:57:39;;;;;;;8.02;5.03;;;;;;;19.13;85.63;99613.66;5025329;28;20080;-77
2023/07/15 03:00:13;;;;;;;6.43;5.00;;;;;;;19.41;85.81;99670.94;5020239;28;20069;-76
2023/07/15 03:02:44;;;;;;;7.50;4.80;;;;;;;19.48;85.88;99685.47;5025777;28;20031;-76
2023/07/15 03:05:11;;;;;;;9.80;4.70;;;;;;;19.50;85.41;99680.00;5026688;28;20152;-77
2023/07/15 03:07:40;;;;;;;11.65;5.38;;;;;;;19.49;85.24;99667.53;5028331;28;20058;-75
2023/07/15 03:10:08;;;;;;;13.80;5.10;;;;;;;19.53;86.18;99669.78;5018484;28;20050;-74
2023/07/15 03:12:35;;;;;;;7.75;5.10;;;;;;;19.53;86.13;99663.56;5025401;28;20053;-77
2023/07/15 03:15:01;;;;;;;10.48;5.20;;;;;;;19.45;87.50;99674.16;5026847;28;20033;-76
2023/07/15 03:17:35;;;;;;;7.82;4.47;;;;;;;19.33;87.82;99683.41;5024770;28;20132;-79
2023/07/15 03:20:14;;;;;;;9.15;5.30;;;;;;;19.27;88.82;99687.50;5019974;28;20058;-76
2023/07/15 03:22:42;;;;;;;7.82;4.88;;;;;;;19.33;89.29;99684.25;5010081;28;20069;-75
2023/07/15 03:25:09;;;;;;;5.32;4.15;;;;;;;19.31;88.26;99682.69;5016624;28;20054;-75
2023/07/15 03:27:38;;;;;;;9.35;4.75;;;;;;;19.37;88.44;99685.63;5012382;28;20116;-75
2023/07/15 03:30:09;;;;;;;6.18;4.55;;;;;;;19.38;87.52;99678.41;5005798;28;20073;-75
2023/07/15 03:32:37;;;;;;;6.63;4.35;;;;;;;19.43;84.42;99674.31;5006844;28;20054;-76
2023/07/15 03:35:04;;;;;;;8.57;4.13;;;;;;;19.49;82.16;99671.09;5002174;28;20050;-76
2023/07/15 03:37:32;;;;;;;5.47;3.97;;;;;;;19.49;81.51;99670.22;5001838;28;20056;-75
2023/07/15 03:39:59;;;;;;;6.85;4.15;;;;;;;19.46;81.21;99667.81;4997115;28;20042;-76
2023/07/15 03:42:27;;;;;;;6.32;3.97;;;;;;;19.43;81.39;99662.72;4990583;28;20045;-75
2023/07/15 03:44:54;;;;;;;7.38;3.90;;;;;;;19.52;80.89;99678.81;5003074;28;20068;-75
2023/07/15 03:47:22;;;;;;;5.63;4.20;;;;;;;19.53;79.50;99679.69;5007180;28;20042;-75
2023/07/15 03:49:48;;;;;;;7.40;4.07;;;;;;;19.60;77.89;99675.44;5011539;28;20439;-75
2023/07/15 03:52:15;;;;;;;6.38;4.22;;;;;;;19.61;79.05;99677.13;5009039;28;20112;-75
2023/07/15 03:54:43;;;;;;;5.93;4.00;;;;;;;19.56;77.76;99661.44;5007270;28;20053;-76
2023/07/15 03:57:10;;;;;;;6.43;4.00;;;;;;;19.67;78.27;99681.91;4989774;28;20049;-75
2023/07/15 03:59:38;;;;;;;7.32;4.13;;;;;;;19.67;77.36;99664.94;5012104;28;20045;-76
2023/07/15 04:02:04;;;;;;;6.32;4.00;;;;;;;19.71;76.36;99669.84;5005612;28;20050;-75
2023/07/15 04:04:32;;;;;;;6.63;3.90;;;;;;;19.75;74.97;99657.84;4993247;28;20121;-75
2023/07/15 04:06:59;;;;;;;6.22;3.47;;;;;;;19.82;74.09;99658.94;5003605;28;20114;-75
2023/07/15 04:09:27;;;;;;;4.93;3.92;;;;;;;19.76;74.04;99643.41;4995324;28;20146;-75
2023/07/15 04:11:55;;;;;;;7.57;3.90;;;;;;;19.68;75.69;99648.66;4998772;28;20129;-75
2023/07/15 04:14:22;;;;;;;6.90;3.90;;;;;;;19.72;76.14;99674.25;5011001;28;20065;-75
2023/07/15 04:16:49;;;;;;;11.48;3.88;;;;;;;19.65;75.90;99667.78;5006936;28;20053;-77
2023/07/15 04:19:16;;;;;;;7.22;4.13;;;;;;;19.71;76.53;99669.84;5000498;28;20113;-75
2023/07/15 04:21:44;;;;;;;6.05;3.92;;;;;;;19.69;76.64;99655.72;4983724;28;20144;-76
2023/07/15 04:24:12;;;;;;;5.70;4.05;;;;;;;19.71;76.90;99669.84;4999329;28;20054;-77
2023/07/15 04:26:45;;;;;;;5.15;4.05;;;;;;;19.66;76.86;99665.94;4999602;28;20157;-75
2023/07/15 04:29:11;;;;;;;5.13;3.90;;;;;;;19.79;77.34;99683.41;5012135;28;20057;-75
2023/07/15 04:31:42;;;;;;;6.35;3.90;;;;;;;19.78;77.90;99679.03;5010603;28;20050;-76
2023/07/15 04:34:10;;;;;;;5.82;3.60;;;;;;;19.84;78.71;99699.06;5009859;28;20052;-74
2023/07/15 04:36:37;;;;;;;5.43;3.95;;;;;;;19.85;79.55;99701.63;5017059;28;20038;-76
2023/07/15 04:39:05;;;;;;;8.35;4.53;;;;;;;19.78;80.50;99679.03;5013456;28;20705;-76
2023/07/15 04:41:33;;;;;;;7.07;4.35;;;;;;;19.84;81.54;99694.53;4999814;28;20062;-78
2023/07/15 04:44:00;;;;;;;7.88;4.80;;;;;;;19.86;82.84;99686.34;5006304;28;20466;-75
2023/07/15 04:46:27;;;;;;;9.88;4.15;;;;;;;19.81;82.62;99662.63;5005812;28;20046;-75
2023/07/15 04:48:53;;;;;;;6.15;4.47;;;;;;;19.92;83.13;99683.06;4995405;28;20092;-76
2023/07/15 04:51:21;;;;;;;6.82;4.20;;;;;;;19.85;83.04;99684.66;5005615;28;20110;-76
2023/07/15 04:53:49;;;;;;;7.72;4.25;;;;;;;19.85;83.41;99688.19;4989852;28;20084;-75
2023/07/15 04:56:15;;;;;;;8.35;4.78;;;;;;;19.81;83.29;99688.66;5006049;28;20050;-76
2023/07/15 04:58:42;;;;;;;7.43;4.47;;;;;;;19.81;83.87;99675.22;5003331;28;20064;-75
2023/07/15 05:01:09;;;;;;;8.63;4.65;;;;;;;19.86;84.09;99684.50;5000991;28;20096;-75
2023/07/15 05:03:36;;;;;;;5.93;4.10;;;;;;;19.86;83.69;99665.69;5003179;28;20053;-75
2023/07/15 05:06:03;;;;;;;5.45;4.03;;;;;;;20.04;81.41;99678.34;4997532;28;20129;-75
2023/07/15 05:08:30;;;;;;;9.27;4.78;;;;;;;20.12;81.17;99681.13;5000940;28;20195;-75
2023/07/15 05:10:57;;;;;;;6.63;4.32;;;;;;;20.19;80.60;99677.69;4998890;28;20053;-75
2023/07/15 05:13:25;;;;;;;6.10;4.15;;;;;;;20.27;80.66;99679.63;5005847;28;20052;-75
2023/07/15 05:15:51;;;;;;;5.65;4.13;;;;;;;20.37;79.40;99679.59;5003633;28;20050;-74
2023/07/15 05:18:19;;;;;;;6.35;4.10;;;;;;;20.52;79.86;99689.66;5007715;28;20046;-75
2023/07/15 05:20:46;;;;;;;6.18;4.20;;;;;;;20.53;79.58;99685.97;5001920;28;20076;-76
2023/07/15 05:23:14;;;;;;;6.32;4.13;;;;;;;20.65;78.99;99682.06;5008996;28;20062;-75
2023/07/15 05:25:40;;;;;;;6.45;4.15;;;;;;;20.64;77.83;99669.59;5003414;28;20057;-76
2023/07/15 05:28:08;;;;;;;6.05;4.78;;;;;;;20.78;77.14;99673.59;5001872;28;20045;-75
2023/07/15 05:30:36;;;;;;;7.72;4.32;;;;;;;20.90;76.94;99685.00;4991786;28;20045;-75
2023/07/15 05:33:03;;;;;;;8.43;4.80;;;;;;;21.04;75.42;99688.97;5008188;28;20050;-76
2023/07/15 05:35:31;;;;;;;11.60;4.38;;;;;;;21.16;74.77;99685.03;5008577;28;20085;-75
2023/07/15 05:37:59;;;;;;;7.97;4.55;;;;;;;21.25;74.92;99674.19;5004276;28;20188;-76
2023/07/15 05:40:26;;;;;;;5.80;3.67;;;;;;;21.36;74.23;99659.63;4999041;28;20173;-76
2023/07/15 05:42:55;;;;;;;6.20;4.15;;;;;;;21.47;71.74;99653.13;5006578;28;20046;-75
2023/07/15 05:45:21;;;;;;;8.57;4.68;;;;;;;21.50;72.22;99648.25;5011343;28;20040;-76
2023/07/15 05:47:48;;;;;;;8.27;4.70;;;;;;;21.72;71.11;99662.19;5008487;28;20042;-76
2023/07/15 05:50:16;;;;;;;9.82;4.63;;;;;;;21.81;69.03;99650.44;5003570;28;20111;-77
2023/07/15 05:52:44;;;;;;;8.50;4.20;;;;;;;21.98;69.06;99662.97;5022840;28;20049;-76
2023/07/15 05:55:11;;;;;;;7.10;4.50;;;;;;;22.09;68.19;99653.75;5023957;28;20096;-75
2023/07/15 05:57:37;;;;;;;6.30;3.88;;;;;;;22.23;67.31;99658.53;5006003;28;20057;-75
2023/07/15 06:00:09;;;;;;;9.68;4.38;;;;;;;22.48;66.70;99657.59;5004254;28;20468;-75
2023/07/15 06:02:41;;;;;;;11.85;4.90;;;;;;;22.59;65.92;99651.88;5021234;28;20048;-78
2023/07/15 06:05:08;;;;;;;9.00;4.65;;;;;;;22.55;65.39;99650.50;5008785;28;20077;-77
2023/07/15 06:07:36;;;;;;;9.90;4.45;;;;;;;22.62;66.05;99640.75;5006932;28;20088;-75
2023/07/15 06:10:03;;;;;;;8.15;4.35;;;;;;;22.79;65.20;99651.59;5003055;28;20073;-76
2023/07/15 06:12:30;;;;;;;11.07;4.38;;;;;;;22.91;65.84;99639.44;5020267;28;20062;-76
2023/07/15 06:14:58;;;;;;;8.57;4.40;;;;;;;23.05;64.46;99642.28;5015060;28;20065;-77
2023/07/15 06:17:24;;;;;;;7.82;4.78;;;;;;;23.28;62.82;99649.69;5020914;28;20050;-77
2023/07/15 06:19:51;;;;;;;6.75;4.40;;;;;;;23.14;62.70;99620.69;5017070;28;20052;-77
2023/07/15 06:22:18;;;;;;;11.10;4.60;;;;;;;23.14;63.30;99634.19;5017643;28;20041;-76
2023/07/15 06:24:45;;;;;;;8.70;4.15;;;;;;;23.03;64.40;99627.25;5021330;28;20049;-74
2023/07/15 06:27:13;;;;;;;7.85;4.47;;;;;;;23.32;62.59;99653.72;5028858;28;20508;-77
2023/07/15 06:29:42;;;;;;;9.27;4.22;;;;;;;23.60;60.59;99624.50;5026737;28;20050;-77
2023/07/15 06:32:09;;;;;;;10.20;4.75;;;;;;;24.10;59.33;99637.59;5015141;28;20037;-75
2023/07/15 06:34:35;;;;;;;8.73;4.30;;;;;;;24.47;57.09;99642.31;5024559;28;20145;-77
2023/07/15 06:37:02;;;;;;;6.47;3.78;;;;;;;25.04;57.00;99636.47;5023355;28;20058;-76
2023/07/15 06:39:31;;;;;;;12.35;3.97;;;;;;;25.37;54.64;99640.56;5019155;28;20073;-75
2023/07/15 06:41:58;;;;;;;6.93;4.13;;;;;;;25.51;54.54;99641.59;5011742;28;20569;-75
2023/07/15 06:44:24;;;;;;;6.57;3.80;;;;;;;25.78;53.29;99635.56;5019631;28;20073;-76
2023/07/15 06:46:53;;;;;;;7.18;3.80;;;;;;;26.06;55.12;99649.28;5012828;28;20041;-77
2023/07/15 06:49:19;;;;;;;5.07;3.83;;;;;;;26.49;52.10;99658.38;5014127;28;20125;-77
2023/07/15 06:51:47;;;;;;;7.68;3.80;;;;;;;26.72;53.75;99649.22;5008209;28;20391;-76
2023/07/15 06:54:15;;;;;;;8.85;4.03;;;;;;;26.82;50.54;99625.28;5003616;28;20544;-76
2023/07/15 06:56:43;;;;;;;4.28;3.03;;;;;;;27.40;47.45;99653.16;5003250;28;20573;-75
2023/07/15 06:59:09;;;;;;;4.93;3.30;;;;;;;27.68;48.20;99645.03;5005075;28;20042;-75
2023/07/15 07:01:36;;;;;;;8.07;3.70;;;;;;;27.71;48.29;99648.16;4995725;28;20042;-76
2023/07/15 07:04:04;;;;;;;5.97;3.42;;;;;;;27.37;46.54;99629.94;5008547;28;20510;-77
2023/07/15 07:06:31;;;;;;;3.95;3.13;;;;;;;27.78;47.44;99673.53;5005632;28;20081;-75
2023/07/15 07:08:58;;;;;;;5.28;3.45;;;;;;;28.29;46.75;99673.19;5003649;28;20100;-75
2023/07/15 07:11:24;;;;;;;4.05;3.28;;;;;;;28.18;45.16;99658.22;4995789;28;20131;-75
2023/07/15 07:13:51;;;;;;;7.47;3.30;;;;;;;28.25;46.02;99664.59;5006063;28;20046;-75
2023/07/15 07:16:21;;;;;;;6.13;3.20;;;;;;;27.87;45.77;99663.31;5002647;28;20455;-75
2023/07/15 07:18:48;;;;;;;5.13;3.30;;;;;;;27.63;45.96;99642.91;4997368;28;20046;-75
2023/07/15 07:21:15;;;;;;;6.80;3.35;;;;;;;27.25;46.65;99632.34;4996828;28;20054;-76
2023/07/15 07:23:46;;;;;;;;;;;;;;;27.30;47.51;99661.66;5003274;28;20113;-75
2023/07/15 07:26:13;;;;;;;5.68;3.67;;;;;;;27.03;47.26;99657.06;5018906;28;19929;-77
2023/07/15 07:28:42;;;;;;;5.40;3.17;;;;;;;27.00;49.42;99662.88;5003283;28;20069;-77
2023/07/15 07:31:11;;;;;;;7.13;3.30;;;;;;;27.60;47.53;99651.44;5006650;28;20491;-76
2023/07/15 07:33:41;;;;;;;3.75;3.08;;;;;;;28.01;45.41;99635.16;5003431;28;20105;-75
2023/07/15 07:36:09;;;;;;;4.63;2.70;;;;;;;28.41;44.73;99624.41;5006492;28;20145;-77
2023/07/15 07:38:36;;;;;;;4.80;3.10;;;;;;;28.57;43.57;99634.94;5005212;28;20042;-76
2023/07/15 07:41:10;;;;;;;3.90;2.92;;;;;;;28.69;43.16;99659.66;4996184;28;20520;-76
2023/07/15 07:43:39;;;;;;;4.05;2.83;;;;;;;29.17;42.91;99671.28;4988849;28;20042;-77
2023/07/15 07:46:10;;;;;;;3.17;2.75;;;;;;;29.85;41.85;99675.44;5012225;28;20111;-77
2023/07/15 07:48:37;;;;;;;7.63;2.88;;;;;;;30.42;40.43;99672.91;5009972;28;20132;-75
2023/07/15 07:51:03;;;;;;;8.25;2.90;;;;;;;30.64;39.84;99685.25;4992801;28;20114;-76
2023/07/15 07:53:30;;;;;;;3.20;2.42;;;;;;;30.26;39.12;99649.69;5005752;28;20046;-75
2023/07/15 07:55:58;;;;;;;5.70;2.72;;;;;;;30.48;38.14;99685.72;5017298;28;20064;-76
2023/07/15 07:58:24;;;;;;;5.00;2.53;;;;;;;30.23;38.02;99680.97;5013752;28;20115;-75
2023/07/15 08:00:52;;;;;;;3.45;2.22;;;;;;;30.04;39.00;99665.53;4991554;28;21612;-75
2023/07/15 08:03:20;;;;;;;4.80;2.55;;;;;;;30.00;39.83;99654.19;5001246;28;20045;-77
2023/07/15 08:05:48;;;;;;;6.68;3.08;;;;;;;29.83;40.42;99683.00;5001169;28;20529;-77
2023/07/15 08:08:17;;;;;;;3.33;2.70;;;;;;;29.61;41.03;99682.41;5022137;28;20096;-76
2023/07/15 08:10:45;;;;;;;3.80;2.65;;;;;;;29.12;40.66;99662.91;5001196;28;20109;-76
2023/07/15 08:13:12;;;;;;;4.30;2.60;;;;;;;28.66;41.53;99657.34;4983937;28;20133;-76
2023/07/15 08:15:38;;;;;;;3.08;2.60;;;;;;;28.48;42.21;99687.94;5008022;28;20073;-75
2023/07/15 08:18:08;;;;;;;4.97;2.70;;;;;;;28.22;43.13;99653.25;5006463;28;20521;-77
2023/07/15 08:20:34;;;;;;;3.77;2.43;;;;;;;28.80;42.54;99689.94;5001430;28;20054;-76
2023/07/15 08:23:03;;;;;;;5.90;2.75;;;;;;;29.18;41.50;99692.03;5011261;28;20129;-76
2023/07/15 08:25:31;;;;;;;4.40;2.90;;;;;;;29.05;41.46;99686.59;4998216;28;20115;-77
2023/07/15 08:27:57;;;;;;;2.90;2.40;;;;;;;29.01;41.93;99688.88;5001450;28;20501;-78
2023/07/15 08:30:24;;;;;;;5.18;2.60;;;;;;;29.15;41.41;99670.66;5000679;28;20063;-77
2023/07/15 08:32:51;;;;;;;2.83;2.60;;;;;;;29.34;41.24;99667.09;5012630;28;20114;-75
2023/07/15 08:35:18;;;;;;;5.32;3.47;;;;;;;29.28;40.93;99637.91;5004670;28;20042;-78
2023/07/15 08:37:45;;;;;;;4.45;2.70;;;;;;;29.46;40.91;99673.59;5011596;28;20042;-76
2023/07/15 08:40:13;;;;;;;3.30;2.60;;;;;;;29.55;41.56;99688.72;5003494;28;20161;-76
2023/07/15 08:42:40;;;;;;;4.03;2.90;;;;;;;29.77;41.03;99685.72;4996559;28;20057;-76
2023/07/15 08:45:09;;;;;;;3.90;2.85;;;;;;;29.73;40.16;99698.13;5010004;28;20104;-76
2023/07/15 08:47:39;;;;;;;6.03;3.05;;;;;;;29.76;41.09;99700.41;5007335;28;20099;-75
2023/07/15 08:50:10;;;;;;;4.53;2.53;;;;;;;29.69;40.81;99699.59;5011870;28;20118;-76
2023/07/15 08:52:38;;;;;;;4.68;2.75;;;;;;;29.53;40.40;99709.91;5000326;28;20057;-76
2023/07/15 08:55:07;;;;;;;4.45;3.05;;;;;;;29.41;41.62;99722.50;5005056;28;20148;-75
2023/07/15 08:57:35;;;;;;;;;;;;;;;28.96;41.83;99735.84;5001027;28;20050;-76
2023/07/15 09:00:10;;;;;;;6.97;2.80;;;;;;;28.72;42.10;99730.94;5007772;28;20036;-76
2023/07/15 09:02:38;;;;;;;5.43;3.08;;;;;;;28.69;42.93;99746.84;5002354;28;20060;-77
2023/07/15 09:05:09;;;;;;;7.75;3.60;;;;;;;28.43;43.77;99723.94;5011367;28;20109;-75
2023/07/15 09:07:51;;;;;;;3.45;2.90;;;;;;;28.19;44.72;99738.03;5007582;28;20052;-75
2023/07/15 09:10:18;;;;;;;3.88;3.03;;;;;;;28.03;45.01;99731.03;5005965;28;20217;-76
2023/07/15 09:12:46;;;;;;;4.68;3.30;;;;;;;28.04;45.11;99726.41;5001010;28;20426;-76
2023/07/15 09:15:16;;;;;;;5.05;3.00;;;;;;;28.15;45.55;99744.94;5004880;28;20050;-77
2023/07/15 09:17:56;;;;;;;6.68;3.30;;;;;;;28.21;44.99;99719.63;5016605;28;20585;-76
2023/07/15 09:20:26;;;;;;;7.22;3.25;;;;;;;28.29;44.56;99716.75;5010738;28;20422;-77
2023/07/15 09:22:55;;;;;;;7.15;3.50;;;;;;;28.40;44.83;99715.31;4994767;28;20046;-76
2023/07/15 09:25:24;;;;;;;5.25;2.97;;;;;;;28.44;44.42;99703.00;5010885;28;20133;-75
2023/07/15 09:27:51;;;;;;;5.63;3.00;;;;;;;28.50;45.13;99688.53;5002367;28;20114;-76
2023/07/15 09:30:20;;;;;;;5.90;3.05;;;;;;;28.61;44.76;99717.91;5000817;28;20050;-77
2023/07/15 09:32:47;;;;;;;7.10;3.50;;;;;;;28.44;44.90;99698.38;4985068;28;20071;-75
2023/07/15 09:35:14;;;;;;;4.32;3.35;;;;;;;28.32;45.54;99689.13;5006407;28;20069;-75
2023/07/15 09:37:41;;;;;;;6.30;3.28;;;;;;;28.25;47.61;99719.03;4997779;28;20410;-76
2023/07/15 09:40:10;;;;;;;5.45;3.60;;;;;;;27.99;48.02;99713.44;5004726;28;20042;-75
2023/07/15 09:43:03;;;;;;;5.72;3.83;;;;;;;27.73;51.40;99745.91;5005609;28;20080;-76
2023/07/15 09:45:40;;;;;;;8.25;3.92;;;;;;;27.48;51.22;99730.00;5009823;28;20046;-76
2023/07/15 09:48:16;;;;;;;6.25;3.47;;;;;;;27.50;50.76;99757.84;5014337;28;20065;-74
2023/07/15 09:50:43;;;;;;;7.07;2.90;;;;;;;27.34;49.50;99722.78;5010469;28;20063;-73
2023/07/15 09:53:11;;;;;;;7.22;3.35;;;;;;;27.36;49.98;99723.41;5011968;28;20077;-74
2023/07/15 09:55:39;;;;;;;6.18;3.78;;;;;;;27.38;52.62;99743.09;5022421;28;20037;-75
2023/07/15 09:58:22;;;;;;;8.65;3.83;;;;;;;27.24;52.04;99747.56;5025529;28;20065;-73
2023/07/15 10:01:03;;;;;;;4.68;3.03;;;;;;;27.21;51.81;99739.81;5027431;28;20054;-71
2023/07/15 10:04:00;;;;;;;6.47;3.20;;;;;;;27.22;52.17;99733.34;5016803;28;20050;-75
2023/07/15 10:06:28;;;;;;;4.55;3.22;;;;;;;27.22;51.36;99721.63;5011626;28;20049;-72
2023/07/15 10:08:56;;;;;;;3.75;2.80;;;;;;;27.27;51.12;99727.31;5010063;28;20057;-75
2023/07/15 10:11:26;;;;;;;3.97;3.38;;;;;;;27.24;51.46;99733.13;5017710;28;20046;-73
2023/07/15 10:13:54;;;;;;;5.28;3.40;;;;;;;27.10;51.30;99713.13;5014039;28;20056;-71
2023/07/15 10:16:20;;;;;;;5.75;3.47;;;;;;;27.24;50.46;99733.13;5018588;28;20046;-74
2023/07/15 10:18:48;;;;;;;4.25;2.90;;;;;;;27.38;50.40;99740.38;5017222;28;20050;-74
2023/07/15 10:21:15;;;;;;;5.32;3.40;;;;;;;27.48;50.59;99731.88;5012288;28;20050;-73
2023/07/15 10:23:42;;;;;;;7.32;3.10;;;;;;;27.44;50.66;99708.81;5015331;28;20057;-75
2023/07/15 10:26:10;;;;;;;5.38;3.20;;;;;;;27.43;51.46;99718.03;5017486;28;20060;-75
2023/07/15 10:28:40;;;;;;;4.30;3.22;;;;;;;27.47;50.27;99713.88;5021148;28;20069;-75
2023/07/15 10:31:11;;;;;;;5.35;2.80;;;;;;;27.47;49.31;99724.75;5010356;28;20046;-72
2023/07/15 10:33:53;;;;;;;5.00;2.88;;;;;;;27.45;50.10;99710.50;5005334;28;20045;-73
2023/07/15 10:36:42;;;;;;;4.65;3.30;;;;;;;27.45;49.39;99710.50;5021255;28;20046;-75
2023/07/15 10:39:13;;;;;;;5.78;3.65;;;;;;;27.48;50.55;99705.53;5016140;28;20066;-75
2023/07/15 10:41:51;;;;;;;6.15;3.42;;;;;;;27.23;49.06;99671.66;5012003;28;20050;-71
2023/07/15 10:44:22;;;;;;;4.95;3.40;;;;;;;27.48;49.54;99710.97;5011774;28;20081;-75
2023/07/15 10:47:02;;;;;;;4.72;3.50;;;;;;;27.72;50.06;99711.56;5001535;28;20053;-74
2023/07/15 10:49:33;;;;;;;6.07;4.30;;;;;;;28.00;49.29;99714.28;5009580;28;20045;-75
2023/07/15 10:52:04;;;;;;;4.60;3.40;;;;;;;28.25;47.13;99707.31;4992684;28;20133;-75
2023/07/15 10:54:37;;;;;;;5.40;3.70;;;;;;;28.35;47.29;99701.47;5004079;28;20442;-72
2023/07/15 10:57:16;;;;;;;8.02;3.60;;;;;;;28.53;46.76;99718.09;5009690;28;20140;-75
2023/07/15 10:59:45;;;;;;;3.85;3.38;;;;;;;28.58;45.80;99708.28;4997452;28;20046;-74
2023/07/15 11:02:13;;;;;;;8.52;3.13;;;;;;;28.88;46.74;99714.25;4991848;28;20045;-76
2023/07/15 11:04:42;;;;;;;7.93;3.58;;;;;;;28.95;47.01;99671.50;5012409;28;20105;-77
2023/07/15 11:07:12;;;;;;;6.10;3.50;;;;;;;29.30;46.47;99696.66;5025749;28;20049;-77
2023/07/15 11:09:40;;;;;;;6.22;3.22;;;;;;;29.41;45.97;99684.31;5010402;28;20384;-75
2023/07/15 11:12:09;;;;;;;6.93;3.90;;;;;;;29.34;45.62;99688.91;5000088;28;20061;-77
2023/07/15 11:14:43;;;;;;;6.70;3.55;;;;;;;29.29;46.39;99694.97;5004742;28;20137;-77
2023/07/15 11:17:12;;;;;;;9.32;3.60;;;;;;;29.36;46.75;99703.16;5008270;28;20046;-76
2023/07/15 11:19:44;;;;;;;7.57;4.03;;;;;;;28.91;48.94;99681.13;5008759;28;20473;-76
2023/07/15 11:22:11;;;;;;;6.43;3.70;;;;;;;28.72;49.52;99700.97;4998742;28;20054;-75
2023/07/15 11:24:38;;;;;;;7.45;3.63;;;;;;;28.57;51.13;99686.69;5006409;28;20045;-76
2023/07/15 11:27:05;;;;;;;5.03;3.60;;;;;;;28.49;51.44;99670.53;5003470;28;20042;-75
2023/07/15 11:29:40;;;;;;;7.85;3.67;;;;;;;28.54;51.71;99679.75;5006902;28;20192;-76
2023/07/15 11:32:07;;;;;;;4.93;3.15;;;;;;;28.59;50.38;99657.34;4999633;28;20046;-75
2023/07/15 11:34:34;;;;;;;6.75;3.30;;;;;;;28.72;49.11;99672.88;4999967;28;20180;-76
2023/07/15 11:37:05;;;;;;;5.35;3.40;;;;;;;28.70;49.80;99661.34;5005679;28;20120;-76
2023/07/15 11:39:32;;;;;;;5.53;3.70;;;;;;;28.77;49.57;99657.59;5005815;28;20449;-76
2023/07/15 11:41:58;;;;;;;4.40;3.40;;;;;;;28.62;49.24;99637.88;5011040;28;20125;-75